Terminal Aerodrome Forecast
Issued by NWS Jackson, MS

Home | Current Version | Previous Version | Text Only | Print | Product List | Glossary On
Versions: 1 2 3 4 5 6 7 8 9 10 11 12 13 14 15 16 17 18 19 20 21 22 23 24
000
FTUS44 KJAN 111700
TAFGWO
TAF
KGWO 111720Z 1118/1218 35005KT P6SM VCTS SCT040CB BKN060
     FM120300 00000KT 6SM BR SCT100
     FM120800 00000KT 4SM BR SKC
     FM121300 04004KT P6SM SKC=

USA.gov is the U.S. government's official web portal to all federal, state and local government web resources and services.